Santa Teresa, Argentina
Current Conditions -  °F | °C
As of 11:00 AM on Monday 24 Nov 2014 (Local Time) from SAAR Reporting Station
Thunderstorm Thunderstorm  
Wind Chill: 77°   Ceiling: Unl
Heat Index: 79°   Visibility: 6mi
Dew Point: 63°   Wind: 5mph
Humidity: 61%   Direction: 200°SSW
Pressure: 29.77"   Gusts: NA
Location:  33.43°S, 60.78°W
Report Text: SAAR 241400Z 20004KT 9000 -TSRA FEW020SCT024 FEW042CB 25/17 Q1008
Loading
Personal Weather Stations






























Interactive Weather Map New forecast layout! Learn more

10-Day Weather Forecast

Advertisements
Track Severe Weather on mobile